Hauptseite
METAR-TAF:

METAR-TAF

Flughäfen :

Nadi, Fidschi

Flughafen Nadi

Breite: 17-45S, Länge: 177-27E, Höhe: 13 m

Beobachtung

Neuester Wetterbericht von vor 38 Minuten, um 02:00 UTC
Wind 12 kt aus West
Temperatur 28°C
Luftfeuchtigkeit 45%
Luftdruck 1013 hPa
Sichtweite 10 km oder mehr
Leicht bewölkt in der Höhe von 3000 ft
Aufgelockert bewölkt in der Höhe von 12000 ft

METAR: NFFN 280200Z 28012KT 9999 FEW030 SCT120 28/15 Q1013 NOSIG

Zeit: 14:38 (02:38 UTC)

Prognose

Neuester Wetterbericht von vor 3 Stunden und 38 Minuten, um 23:00 UTC
Gültige Prognose vom 28 um 00 UTC bis 28 um 24 UTC
Wind 10 kt aus West
Sichtweite 10 km oder mehr
Aufgelockert bewölkt in der Höhe von 2500 ft
Übergehend zu
vom 28 um 04 UTC bis 28 um 06 UTC
Wind 6 kt aus Ost/Südost
Übergehend zu
vom 28 um 22 UTC bis 28 um 24 UTC
Wind 10 kt aus West

TAF: NFFN 272300Z 2800/2824 27010KT 9999 SCT025 BECMG 2804/2806 12006KT BECMG 2822/2824 27010KT

Wetterbeobachtungen und Prognosen von mehr als 4000 Flughäfen (METAR und TAF Bericht).

Die verfügbaren Stationen werden durch gelbe und rote Markierungen auf der Karte dargestellt.

Führen Sie die Maus auf sie, um den Namen der Station zu sehen.

Darauf klicken, um die Beobachtung von Wetterbeobachtungen und Prognosen zu sehen.

Um die Karte zu ändern : klicken Sie auf den grünen Tasten mit einem schwarzen Kreuz Zum Vergrößern, auf den grünen Button mit einem Gedankenstrich zu verkleinern, oder auf die grünen Pfeile für benachbarte Karten.


METAR-TAF: